Flight Track Log - Related Links

Times and Time Zones

All times are in EST time to prevent confusion due to time zone crossing. See the PKW659 flight status page for this flight to view local times or setup timezone preferences in your user account.

Time Position Orientation Groundspeed Altitude Reporting Facility
EST Latitude Longitude Course Direction KTS MPH feet Rate Location/Type
05:51PM 43.0167 -81.1333 228° Southwest 10 12 1,000  Level Toronto Center
05:52PM 43.0167 -81.1667 270° West 140 161 3,000 2,650 Climbing Toronto Center
05:53PM 43.0000 -81.2333 251° West 170 196 6,300 2,750 Climbing Toronto Center
05:54PM 42.9667 -81.2667 216° Southwest 210 242 8,500 1,900 Climbing Toronto Center
05:55PM 42.9333 -81.3333 236° Southwest 210 242 10,100 1,250 Climbing Toronto Center
05:56PM 42.9000 -81.4000 236° Southwest 220 253 11,000 500 Climbing Toronto Center
05:57PM 42.8198 -81.5644 228° Southwest  Level Estimated
05:57PM 42.8500 -81.4833 231° Southwest 240 276 11,100  Level Toronto Center
05:58PM 42.8064 -81.5583 232° Southwest 229 264 12,500 1,103 Climbing Cleveland Center
05:59PM 42.7586 -81.6186 223° Southwest 230 265 13,600 145 Climbing Cleveland Center
06:01PM 42.7053 -81.6803 220° Southwest 248 285 12,800 -1,355 Descending Cleveland Center
06:02PM 42.6511 -81.7450 221° Southwest 254 292 10,800 -1,935 Descending Cleveland Center
06:03PM 42.5958 -81.8211 225° Southwest 254 292 8,800 -1,355 Descending Cleveland Center
06:04PM 42.5628 -81.8975 240° Southwest 241 277 8,000 -384 Descending Cleveland Center
06:05PM 42.5392 -81.9783 248° West 231 266 8,000 -48 Level Cleveland Center
06:06PM 42.5144 -82.0647 249° West 242 278 7,900 48 Descending Cleveland Center
06:07PM 42.4775 -82.1656 244° Southwest 247 284 8,100 48 Climbing Cleveland Center
06:08PM 42.4531 -82.2294 243° Southwest 247 284 8,000 -55 Descending Cleveland Center
06:09PM 42.4217 -82.3094 242° Southwest 228 262 8,000 -97 Level Cleveland Center
06:09PM 42.4161 -82.3214 238° Southwest 239 275 7,900  Descending Cleveland Center
06:10PM 42.3858 -82.3936 240° Southwest 225 259 8,000 94 Climbing Cleveland Center
06:10PM 42.3817 -82.4061 246° West 218 251 8,000 97 Level Cleveland Center
06:11PM 42.3597 -82.4708 245° Southwest 225 259 8,100 -98 Climbing Cleveland Center
06:11PM 42.3553 -82.4847 247° West 229 264 7,900  Descending Cleveland Center
06:12PM 42.3183 -82.5378 227° Southwest 229 264 8,100 194 Climbing Cleveland Center
06:12PM 42.3089 -82.5492 222° Southwest 241 277 8,100 -97 Level Cleveland Center
06:13PM 42.2561 -82.6128 222° Southwest 244 281 8,000 -49 Descending Cleveland Center
06:14PM 42.2078 -82.6742 223° Southwest 243 280 8,000  Level Cleveland Center
06:14PM 42.2075 -82.6736 124° Southeast 242 278 8,000 98 Level Cleveland Center
06:15PM 42.1550 -82.7378 222° Southwest 242 278 8,100 97 Climbing Cleveland Center
06:15PM 42.1581 -82.7328 50° Northeast 242 278 8,100 -1,964 Level Cleveland Center
06:16PM 42.1114 -82.7911 223° Southwest 233 268 6,300 -1,742 Descending Cleveland Center
06:16PM 42.1089 -82.7925 202° Southwest 241 277 6,300 -2,066 Level Cleveland Center
06:17PM 42.0669 -82.8528 227° Southwest 227 261 4,200 -2,032 Descending Cleveland Center
06:17PM 42.0658 -82.8539 217° Southwest 232 267 4,200 -197 Level Cleveland Center
06:18PM 42.0250 -82.9117 226° Southwest 214 246 4,000 -194 Descending Cleveland Center
06:18PM 42.0233 -82.9119 187° South 222 255 4,000 97 Level Cleveland Center
06:19PM 41.9767 -82.9697 223° Southwest 229 264 4,100 97 Climbing Cleveland Center
06:19PM 41.9681 -82.9803 222° Southwest 221 254 4,100  Level Cleveland Center
06:20PM 41.9169 -83.0347 218° Southwest 229 264 4,100 -48 Level Cleveland Center
06:21PM 41.8703 -83.0936 223° Southwest 229 264 4,000  Descending Cleveland Center
06:22PM 41.8256 -83.1514 224° Southwest 229 264 4,100  Climbing Cleveland Center
06:23PM 41.7750 -83.2136 223° Southwest 224 258 4,000 -48 Descending Cleveland Center
06:24PM 41.7536 -83.2797 247° West 228 262 4,000 -48 Level Cleveland Center
06:25PM 41.7275 -83.3722 249° West 223 257 3,900  Descending Cleveland Center
06:26PM 41.7031 -83.4481 247° West 223 257 4,000 48 Climbing Cleveland Center
06:27PM 41.6783 -83.5217 246° West 222 255 4,000  Level Cleveland Center
06:28PM 41.6603 -83.5831 249° West 177 204 4,000 -242 Level Cleveland Center
06:30PM 41.6444 -83.6297 246° West 144 166 3,500 -532 Descending Cleveland Center
06:31PM 41.6306 -83.6781 249° West 141 162 2,900 -720 Descending Cleveland Center
06:32PM 41.6156 -83.7250 247° West 140 161 2,000 -857 Descending Cleveland Center
06:34PM 41.5833 -83.8000 270° West  Level FlightAware Approximate
06:41PM 41.5868 -83.8078 270° West  Level Estimated

Login

Don't have an account? Register now (free) for customized features, flight alerts, and more!